Time;durP1;ratioP1;P1;durP2;ratioP2;P2;SDS_P1;SDS_P2;PMS_P1;PMS_P2;Temp;Humidity;BMP_temperature;BMP_pressure;BME280_temperature;BME280_humidity;BME280_pressure;Samples;Min_cycle;Max_cycle;Signal;HPM_P1;HPM_P2
2021/04/10 00:03:34;;;;;;;;;;;;;;;13.31;41.79;99097.08;4215988;82;20175;-83
2021/04/10 00:09:36;;;;;;;;;;;;;;;13.28;41.59;99090.83;4272587;81;20183;-83
2021/04/10 00:15:38;;;;;;;;;;;;;;;13.17;41.84;99085.80;4235055;83;20189;-83
2021/04/10 00:21:40;;;;;;;;;;;;;;;13.30;41.34;99078.41;4263782;83;20190;-82
2021/04/10 00:27:41;;;;;;;;;;;;;;;13.14;42.71;99080.07;4289767;82;20227;-82
2021/04/10 00:33:44;;;;;;;;;;;;;;;13.27;40.89;99066.22;4274904;82;20586;-79
2021/04/10 00:39:46;;;;;;;;;;;;;;;13.05;42.58;99068.34;4255792;82;20179;-82
2021/04/10 00:45:47;;;;;;;;;;;;;;;13.22;42.25;99058.06;4289385;82;20188;-81
2021/04/10 00:51:51;;;;;;;;;;;;;;;13.48;42.10;99066.02;4280938;81;20265;-81
2021/04/10 00:57:53;;;;;;;;;;;;;;;13.44;43.20;99059.98;4307071;82;20436;-82
2021/04/10 01:03:57;;;;;;;;;;;;;;;13.26;43.46;99045.69;4296938;82;20197;-83
2021/04/10 01:09:59;;;;;;;;;;;;;;;13.52;43.85;99043.38;4240265;82;20171;-82
2021/04/10 01:16:17;;;;;;;;;;;;;;;13.67;43.62;99045.46;4266423;83;20233;-82
2021/04/10 01:22:44;;;;;;;;;;;;;;;13.71;43.03;99051.18;4262681;82;20199;-82
2021/04/10 01:29:00;;;;;;;;;;;;;;;13.94;42.87;99049.56;4247780;83;20477;-81
2021/04/10 01:35:12;;;;;;;;;;;;;;;13.82;43.26;99057.51;4277809;82;20603;-81
2021/04/10 01:41:17;;;;;;;;;;;;;;;13.71;43.02;99047.13;4238368;82;20176;-81
2021/04/10 01:47:23;;;;;;;;;;;;;;;13.69;42.71;99030.33;4084284;84;20275;-80
2021/04/10 01:53:28;;;;;;;;;;;;;;;13.61;43.16;99027.54;4093592;85;20201;-81
2021/04/10 01:59:30;;;;;;;;;;;;;;;13.53;42.51;99030.16;4132608;85;20193;-82
2021/04/10 02:05:34;;;;;;;;;;;;;;;13.35;43.59;99021.25;4287470;81;20219;-82
2021/04/10 02:11:43;;;;;;;;;;;;;;;13.16;44.14;99022.08;4293235;82;20323;-82
2021/04/10 02:17:47;;;;;;;;;;;;;;;13.25;44.50;99025.16;4298151;82;20212;-80
2021/04/10 02:23:49;;;;;;;;;;;;;;;13.11;44.68;99020.13;4326377;81;20184;-81
2021/04/10 02:29:53;;;;;;;;;;;;;;;13.08;45.09;99019.28;4279413;82;20289;-80
2021/04/10 02:35:57;;;;;;;;;;;;;;;13.33;45.07;99018.50;4218483;82;20484;-81
2021/04/10 02:42:02;;;;;;;;;;;;;;;13.11;45.78;99016.59;4281656;82;20615;-81
2021/04/10 02:48:08;;;;;;;;;;;;;;;12.90;46.78;99014.15;4271494;82;20177;-81
2021/04/10 02:54:13;;;;;;;;;;;;;;;13.09;46.24;99020.91;4166856;84;20303;-81
2021/04/10 03:00:17;;;;;;;;;;;;;;;13.17;46.04;99021.53;4109861;85;20290;-81
2021/04/10 03:06:20;;;;;;;;;;;;;;;13.06;46.18;99021.39;4107806;85;20184;-82
2021/04/10 03:12:23;;;;;;;;;;;;;;;13.07;46.05;99018.17;4118624;85;20536;-82
2021/04/10 03:18:26;;;;;;;;;;;;;;;13.00;46.36;99014.81;4115167;85;20546;-81
2021/04/10 03:24:30;;;;;;;;;;;;;;;13.08;45.74;99019.28;4266773;82;20736;-81
2021/04/10 03:30:34;;;;;;;;;;;;;;;12.84;46.62;99028.09;4280221;82;20231;-82
2021/04/10 03:36:36;;;;;;;;;;;;;;;12.79;46.44;99027.48;4224334;83;20470;-81
2021/04/10 03:42:40;;;;;;;;;;;;;;;12.73;46.48;99026.30;4203725;82;20198;-83
2021/04/10 03:48:43;;;;;;;;;;;;;;;12.52;46.70;99034.86;4180921;83;20254;-81
2021/04/10 03:54:47;;;;;;;;;;;;;;;12.76;46.22;99033.90;4198381;84;20492;-82
2021/04/10 04:00:51;;;;;;;;;;;;;;;12.38;47.34;99035.70;4265738;82;20196;-82
2021/04/10 04:06:53;;;;;;;;;;;;;;;12.05;49.55;99040.52;4261516;82;20633;-81
2021/04/10 04:12:57;;;;;;;;;;;;;;;12.33;48.46;99046.41;4291926;82;20306;-81
2021/04/10 04:19:00;;;;;;;;;;;;;;;12.40;47.72;99043.04;4263087;81;20200;-81
2021/04/10 04:25:03;;;;;;;;;;;;;;;12.22;48.61;99045.39;4236516;83;20202;-81
2021/04/10 04:31:06;;;;;;;;;;;;;;;12.28;49.63;99049.00;4244143;82;20222;-80
2021/04/10 04:37:07;;;;;;;;;;;;;;;13.09;47.16;99035.76;4261876;81;20178;-80
2021/04/10 04:43:09;;;;;;;;;;;;;;;13.20;47.41;99034.55;4252340;82;20289;-80
2021/04/10 04:49:11;;;;;;;;;;;;;;;14.30;43.81;99041.53;4238262;82;20239;-81
2021/04/10 04:55:14;;;;;;;;;;;;;;;14.49;43.56;99051.47;4266449;82;20195;-79
2021/04/10 05:01:16;;;;;;;;;;;;;;;14.80;42.72;99054.98;4256492;83;20174;-79
2021/04/10 05:07:17;;;;;;;;;;;;;;;14.94;42.77;99052.66;4294359;82;20251;-80
2021/04/10 05:13:19;;;;;;;;;;;;;;;15.19;41.73;99064.20;4288100;82;20188;-80
2021/04/10 05:19:21;;;;;;;;;;;;;;;14.82;43.25;99067.72;4284194;82;20587;-82
2021/04/10 05:25:23;;;;;;;;;;;;;;;15.74;40.36;99058.52;4262216;82;20285;-78
2021/04/10 05:31:25;;;;;;;;;;;;;;;16.40;38.70;99064.43;4278114;82;20697;-80
2021/04/10 05:37:27;;;;;;;;;;;;;;;16.66;38.73;99080.73;4268295;82;20202;-81
2021/04/10 05:43:29;;;;;;;;;;;;;;;16.12;38.94;99084.99;4289098;81;20304;-84
2021/04/10 05:49:33;;;;;;;;;;;;;;;16.70;38.00;99085.91;4200508;83;20247;-80
2021/04/10 05:55:36;;;;;;;;;;;;;;;17.09;37.53;99077.77;4079209;85;20201;-84
2021/04/10 06:01:38;;;;;;;;;;;;;;;17.32;36.98;99084.53;4268971;82;20477;-84
2021/04/10 06:07:39;;;;;;;;;;;;;;;17.34;37.39;99084.24;4257980;82;20164;-83
2021/04/10 06:13:41;;;;;;;;;;;;;;;17.79;36.67;99078.42;4253422;82;20227;-87
2021/04/10 06:19:43;;;;;;;;;;;;;;;18.25;35.37;99079.30;4272976;82;20560;-85
2021/04/10 06:25:47;;;;;;;;;;;;;;;18.39;35.03;99089.02;4284370;82;20552;-84
2021/04/10 06:31:49;;;;;;;;;;;;;;;18.73;34.47;99091.52;4203288;83;20221;-82
2021/04/10 06:42:05;;;;;;;12.47;6.00;;;;;;;19.61;34.03;99077.91;4393270;79;72438;-85
2021/04/10 20:32:59;;;;;;;23.80;10.90;;;;;;;10.59;74.05;99173.66;4604010;75;54210;-83
2021/04/10 20:39:17;;;;;;;25.62;10.40;;;;;;;18.20;37.00;99160.41;4486468;78;28550;-84
2021/04/10 20:45:23;;;;;;;21.02;9.60;;;;;;;18.90;35.85;99166.02;4505426;78;28542;-83
2021/04/10 20:51:26;;;;;;;21.12;9.88;;;;;;;19.43;33.51;99174.06;4494820;78;28648;-82
2021/04/10 20:57:27;;;;;;;20.55;9.63;;;;;;;19.34;33.76;99176.05;4503904;78;28558;-82
2021/04/10 21:03:30;;;;;;;18.57;8.70;;;;;;;19.74;33.28;99172.40;4506044;78;28566;-82
2021/04/10 21:09:32;;;;;;;25.43;13.58;;;;;;;19.56;34.19;99181.56;4504605;78;28618;-81
2021/04/10 21:15:34;;;;;;;16.37;7.50;;;;;;;20.53;31.93;99187.59;4493047;78;28562;-81
2021/04/10 21:21:39;;;;;;;18.00;8.20;;;;;;;19.86;32.01;99200.09;4490366;78;28555;-80
2021/04/10 21:27:41;;;;;;;16.30;7.62;;;;;;;19.60;32.50;99198.17;4493600;78;28650;-79
2021/04/10 21:33:47;;;;;;;21.37;8.90;;;;;;;19.38;32.66;99205.48;4492512;78;28542;-78
2021/04/10 21:39:49;;;;;;;26.10;9.77;;;;;;;19.62;32.82;99206.34;4368103;80;28614;-79
2021/04/10 21:45:52;;;;;;;17.95;8.63;;;;;;;19.25;33.76;99208.30;4343723;80;28679;-80
2021/04/10 21:51:54;;;;;;;18.48;7.92;;;;;;;18.82;34.34;99215.11;4374302;80;28616;-82
2021/04/10 21:57:57;;;;;;;16.05;7.42;;;;;;;19.01;33.36;99222.66;4338293;80;28607;-80
2021/04/10 22:04:03;;;;;;;20.75;8.45;;;;;;;18.58;34.20;99215.76;4355606;80;28576;-81
2021/04/10 22:10:06;;;;;;;16.33;8.07;;;;;;;18.52;34.64;99214.97;4363890;80;33891;-82
2021/04/10 22:16:15;;;;;;;15.40;7.62;;;;;;;18.10;35.20;99234.73;4358902;80;28551;-83
2021/04/10 22:22:17;;;;;;;19.48;8.50;;;;;;;18.05;35.05;99232.58;4358113;81;28582;-83
2021/04/10 22:28:19;;;;;;;19.30;8.68;;;;;;;18.00;35.89;99232.55;4378932;79;28612;-82
2021/04/10 22:34:21;;;;;;;19.05;8.55;;;;;;;17.66;36.29;99229.34;4345456;80;28599;-82
2021/04/10 22:40:32;;;;;;;18.70;8.35;;;;;;;18.18;35.44;99221.67;4365987;80;28645;-83
2021/04/10 22:46:35;;;;;;;20.57;8.98;;;;;;;17.82;36.51;99217.10;4375701;80;28573;-82
2021/04/10 22:52:38;;;;;;;18.82;9.10;;;;;;;17.88;36.26;99216.55;4359953;80;28603;-81
2021/04/10 22:58:43;;;;;;;19.55;8.60;;;;;;;17.07;38.20;99211.69;4346421;80;28582;-80
2021/04/10 23:04:46;;;;;;;18.85;8.53;;;;;;;17.45;37.01;99212.25;4368023;80;28619;-80
2021/04/10 23:10:48;;;;;;;18.95;9.03;;;;;;;17.41;38.47;99213.34;4367266;80;28648;-81
2021/04/10 23:16:50;;;;;;;17.48;7.92;;;;;;;16.92;39.59;99204.30;4367577;80;28542;-81
2021/04/10 23:22:53;;;;;;;21.68;8.85;;;;;;;16.88;39.42;99203.22;4366928;80;28575;-82
2021/04/10 23:28:55;;;;;;;17.40;8.68;;;;;;;16.86;39.44;99192.62;4390781;80;28565;-82
2021/04/10 23:34:57;;;;;;;16.10;7.10;;;;;;;16.67;40.40;99186.33;4383662;80;28605;-82
2021/04/10 23:41:00;;;;;;;15.30;6.53;;;;;;;16.35;41.26;99192.75;4400083;80;28611;-82
2021/04/10 23:47:02;;;;;;;16.20;6.95;;;;;;;16.61;40.69;99185.23;4366195;80;28548;-82
2021/04/10 23:53:05;;;;;;;17.20;7.12;;;;;;;16.25;41.59;99182.69;4389562;80;28583;-82
2021/04/10 23:59:08;;;;;;;15.78;6.42;;;;;;;16.57;41.37;99176.80;4395378;81;28595;-82
